Terminal Aerodrome Forecast
Issued by NWS Grand Forks, ND

Home | Current Version | Previous Version | Text Only | Print | Product List | Glossary Off
Versions: 1 2 3 4 5 6 7 8 9 10 11 12 13 14 15 16 17 18 19 20

595
FTUS43 KFGF 222340 AAA
TAFFAR
TAF AMD
KFAR 222340Z 2300/2324 15019G29KT P6SM BKN035
     FM231700 17010KT P6SM BKN025
     FM231800 17009KT P6SM OVC015
     FM232300 14006KT P6SM OVC015=

USA.gov is the U.S. government's official web portal to all federal, state and local government web resources and services.